createdAt,value
2023-03-18T00:00:30.320Z,3.20
2023-03-18T00:02:58.105Z,4.27
2023-03-18T00:05:25.214Z,5.20
2023-03-18T00:07:52.624Z,5.87
2023-03-18T00:10:20.447Z,3.83
2023-03-18T00:12:47.817Z,5.57
2023-03-18T00:15:16.181Z,7.67
2023-03-18T00:17:43.249Z,13.53
2023-03-18T00:20:12.770Z,15.50
2023-03-18T00:22:40.903Z,5.17
2023-03-18T00:25:09.047Z,8.17
2023-03-18T00:27:36.138Z,3.67
2023-03-18T00:30:03.645Z,7.73
2023-03-18T00:32:30.744Z,5.53
2023-03-18T00:34:57.826Z,9.47
2023-03-18T00:37:31.238Z,5.27
2023-03-18T00:40:06.014Z,5.57
2023-03-18T00:42:47.224Z,5.33
2023-03-18T00:45:17.033Z,3.73
2023-03-18T00:47:44.463Z,6.93
2023-03-18T00:50:11.734Z,5.23
2023-03-18T00:52:39.538Z,4.23
2023-03-18T00:55:06.981Z,5.07
2023-03-18T00:57:34.897Z,5.17
2023-03-18T01:00:02.594Z,9.20
2023-03-18T01:02:29.888Z,5.40
2023-03-18T01:04:57.890Z,7.17
2023-03-18T01:07:25.303Z,5.00
2023-03-18T01:09:52.648Z,7.40
2023-03-18T01:12:19.688Z,8.17
2023-03-18T01:14:46.924Z,7.83
2023-03-18T01:17:14.436Z,6.00
2023-03-18T01:19:42.290Z,6.90
2023-03-18T01:22:09.493Z,6.93
2023-03-18T01:24:42.707Z,6.63
2023-03-18T01:27:10.684Z,6.17
2023-03-18T01:29:37.925Z,8.03
2023-03-18T01:32:09.725Z,4.80
2023-03-18T01:34:36.984Z,8.30
2023-03-18T01:37:05.408Z,8.43
2023-03-18T01:39:35.656Z,4.37
2023-03-18T01:42:03.394Z,7.27
2023-03-18T01:44:32.287Z,6.47
2023-03-18T01:46:59.837Z,5.83
2023-03-18T01:49:37.153Z,8.37
2023-03-18T01:52:11.436Z,5.37
2023-03-18T01:54:43.125Z,4.97
2023-03-18T01:57:10.421Z,4.13
2023-03-18T01:59:41.284Z,7.50
2023-03-18T02:02:11.349Z,7.77
2023-03-18T02:04:44.399Z,8.63
2023-03-18T02:07:17.725Z,6.90
2023-03-18T02:09:45.999Z,7.53
2023-03-18T02:12:22.606Z,8.33
2023-03-18T02:14:53.029Z,9.77
2023-03-18T02:17:27.017Z,9.87
2023-03-18T02:20:22.250Z,7.13
2023-03-18T02:22:53.741Z,4.80
2023-03-18T02:25:39.746Z,8.10
2023-03-18T02:28:10.879Z,5.90
2023-03-18T02:30:41.533Z,7.07
2023-03-18T02:33:11.719Z,6.87
2023-03-18T02:35:39.046Z,5.50
2023-03-18T02:38:06.227Z,7.30
2023-03-18T02:40:36.804Z,7.07
2023-03-18T02:43:23.151Z,8.63
2023-03-18T02:46:04.118Z,7.57
2023-03-18T02:48:35.625Z,6.27
2023-03-18T02:51:03.253Z,8.97
2023-03-18T02:53:30.359Z,4.23
2023-03-18T02:55:58.136Z,5.17
2023-03-18T02:58:25.214Z,6.97
2023-03-18T03:00:57.563Z,6.97
2023-03-18T03:03:26.524Z,6.07
2023-03-18T03:05:53.736Z,4.80
2023-03-18T03:08:22.458Z,7.87
2023-03-18T03:10:52.273Z,11.27
2023-03-18T03:13:20.886Z,9.80
2023-03-18T03:15:48.536Z,7.50
2023-03-18T03:18:15.625Z,7.77
2023-03-18T03:20:44.824Z,5.57
2023-03-18T03:23:14.445Z,7.70
2023-03-18T03:25:41.952Z,4.93
2023-03-18T03:28:08.806Z,8.00
2023-03-18T03:30:36.719Z,8.67
2023-03-18T03:33:04.347Z,8.20
2023-03-18T03:35:31.548Z,10.03
2023-03-18T03:37:59.133Z,7.17
2023-03-18T03:40:27.547Z,6.47
2023-03-18T03:42:54.629Z,11.90
2023-03-18T03:45:21.340Z,11.70
2023-03-18T03:47:48.425Z,11.50
2023-03-18T03:50:17.895Z,12.07
2023-03-18T03:52:45.261Z,8.63
2023-03-18T03:55:15.026Z,9.07
2023-03-18T03:57:42.194Z,7.67
2023-03-18T04:00:13.943Z,8.33
2023-03-18T04:02:43.610Z,6.63
2023-03-18T04:05:13.798Z,11.57
2023-03-18T04:07:41.480Z,8.67
2023-03-18T04:10:10.803Z,7.33
2023-03-18T04:12:39.005Z,5.03
2023-03-18T04:15:07.415Z,8.57
2023-03-18T04:17:34.647Z,8.40
2023-03-18T04:20:02.013Z,8.17
2023-03-18T04:22:31.885Z,5.30
2023-03-18T04:25:00.538Z,6.50
2023-03-18T04:27:28.123Z,9.07
2023-03-18T04:29:56.648Z,6.30
2023-03-18T04:32:29.454Z,7.10
2023-03-18T04:34:56.604Z,5.37
2023-03-18T04:37:23.807Z,6.17
2023-03-18T04:39:55.473Z,6.93
2023-03-18T04:42:22.371Z,34.90
2023-03-18T04:44:49.524Z,42.17
2023-03-18T04:47:16.869Z,5.97
2023-03-18T04:49:44.974Z,5.87
2023-03-18T04:52:13.730Z,7.17
2023-03-18T04:54:40.377Z,55.93
2023-03-18T04:57:07.727Z,29.97
2023-03-18T04:59:39.444Z,19.13
2023-03-18T05:02:08.938Z,47.93
2023-03-18T05:04:36.674Z,18.33
2023-03-18T05:07:03.839Z,3.77
2023-03-18T05:09:36.097Z,3.17
2023-03-18T05:12:03.268Z,3.53
2023-03-18T05:14:36.548Z,3.23
2023-03-18T05:17:04.500Z,5.33
2023-03-18T05:19:33.872Z,3.90
2023-03-18T05:22:16.324Z,4.00
2023-03-18T05:24:45.846Z,3.70
2023-03-18T05:27:15.178Z,3.43
2023-03-18T05:29:45.397Z,4.00
2023-03-18T05:32:16.737Z,4.10
2023-03-18T05:34:45.013Z,3.30
2023-03-18T05:37:15.285Z,3.83
2023-03-18T05:39:47.400Z,5.03
2023-03-18T05:42:17.141Z,5.43
2023-03-18T05:44:44.595Z,6.63
2023-03-18T05:47:14.078Z,4.93
2023-03-18T05:49:50.659Z,5.33
2023-03-18T05:52:21.317Z,5.43
2023-03-18T05:54:50.619Z,4.00
2023-03-18T05:57:23.943Z,4.10
2023-03-18T05:59:56.888Z,3.20
2023-03-18T06:02:26.905Z,3.33
2023-03-18T06:04:54.695Z,3.10
2023-03-18T06:07:21.784Z,3.10
2023-03-18T06:09:48.995Z,3.20
2023-03-18T06:12:20.112Z,5.77
2023-03-18T06:14:47.202Z,4.57
2023-03-18T06:17:16.409Z,2.57
2023-03-18T06:19:44.953Z,4.87
2023-03-18T06:22:12.274Z,4.93
2023-03-18T06:24:39.551Z,3.27
2023-03-18T06:27:06.819Z,3.83
2023-03-18T06:29:33.873Z,3.07
2023-03-18T06:32:08.067Z,2.40
2023-03-18T06:34:36.201Z,3.93
2023-03-18T06:37:04.538Z,4.27
2023-03-18T06:39:34.726Z,3.13
2023-03-18T06:42:05.237Z,3.70
2023-03-18T06:44:36.796Z,5.03
2023-03-18T06:47:13.408Z,4.63
2023-03-18T06:49:47.026Z,5.50
2023-03-18T06:52:19.072Z,5.60
2023-03-18T06:54:47.806Z,5.20
2023-03-18T06:57:16.902Z,7.13
2023-03-18T06:59:45.483Z,7.27
2023-03-18T07:02:13.355Z,7.33
2023-03-18T07:04:40.463Z,7.33
2023-03-18T07:07:07.755Z,11.23
2023-03-18T07:09:36.660Z,9.33
2023-03-18T07:12:03.791Z,5.17
2023-03-18T07:14:31.084Z,7.30
2023-03-18T07:16:59.155Z,5.00
2023-03-18T07:19:26.199Z,6.10
2023-03-18T07:21:53.274Z,5.77
2023-03-18T07:24:21.447Z,5.37
2023-03-18T07:26:50.296Z,6.90
2023-03-18T07:29:17.635Z,12.77
2023-03-18T07:31:44.480Z,8.47
2023-03-18T07:34:12.652Z,8.20
2023-03-18T07:36:39.740Z,7.27
2023-03-18T07:39:07.540Z,8.33
2023-03-18T07:41:37.631Z,10.90
2023-03-18T07:44:05.118Z,7.33
2023-03-18T07:46:32.198Z,8.33
2023-03-18T07:48:59.952Z,8.30
2023-03-18T07:51:27.405Z,8.10
2023-03-18T07:53:55.116Z,9.17
2023-03-18T07:56:22.188Z,6.37
2023-03-18T07:58:49.275Z,7.80
2023-03-18T08:01:18.282Z,10.67
2023-03-18T08:03:46.385Z,8.07
2023-03-18T08:06:15.319Z,6.03
2023-03-18T08:08:42.938Z,5.90
2023-03-18T08:11:10.128Z,4.80
2023-03-18T08:13:38.706Z,7.23
2023-03-18T08:16:05.867Z,8.10
2023-03-18T08:18:32.928Z,5.20
2023-03-18T08:21:00.443Z,5.83
2023-03-18T08:23:27.211Z,5.53
2023-03-18T08:25:54.299Z,7.20
2023-03-18T08:28:21.356Z,4.57
2023-03-18T08:30:48.663Z,6.37
2023-03-18T08:33:15.927Z,6.17
2023-03-18T08:35:43.020Z,4.07
2023-03-18T08:38:10.347Z,5.63
2023-03-18T08:40:37.382Z,4.93
2023-03-18T08:43:04.506Z,5.27
2023-03-18T08:45:31.746Z,6.37
2023-03-18T08:47:59.453Z,5.80
2023-03-18T08:50:28.552Z,7.47
2023-03-18T08:52:59.848Z,4.93
2023-03-18T08:55:32.416Z,9.03
2023-03-18T08:58:00.008Z,5.30
2023-03-18T09:00:27.505Z,8.63
2023-03-18T09:02:54.550Z,5.30
2023-03-18T09:05:21.971Z,6.10
2023-03-18T09:07:48.954Z,4.73
2023-03-18T09:10:17.606Z,6.03
2023-03-18T09:12:45.606Z,6.57
2023-03-18T09:15:14.826Z,4.50
2023-03-18T09:17:56.487Z,4.43
2023-03-18T09:20:27.510Z,7.30
2023-03-18T09:22:54.691Z,4.50
2023-03-18T09:25:21.833Z,3.93
2023-03-18T09:27:48.908Z,5.53
2023-03-18T09:30:16.142Z,3.73
2023-03-18T09:32:43.364Z,3.17
2023-03-18T09:35:13.126Z,5.47
2023-03-18T09:37:40.540Z,3.53
2023-03-18T09:40:08.362Z,4.20
2023-03-18T09:43:11.908Z,6.50
2023-03-18T09:46:18.659Z,5.00
2023-03-18T09:49:09.945Z,6.10
2023-03-18T09:51:41.851Z,4.57
2023-03-18T09:54:17.023Z,6.07
2023-03-18T09:56:45.468Z,6.57
2023-03-18T09:59:21.464Z,7.47
2023-03-18T10:01:54.162Z,3.77
2023-03-18T10:04:24.881Z,4.20
2023-03-18T10:07:07.303Z,2.57
2023-03-18T10:09:42.937Z,3.50
2023-03-18T10:12:23.844Z,4.10
2023-03-18T10:15:32.793Z,3.33
2023-03-18T10:18:11.601Z,7.10
2023-03-18T10:21:02.062Z,3.90
2023-03-18T10:23:46.254Z,3.03
2023-03-18T10:26:26.472Z,2.67
2023-03-18T10:29:46.567Z,4.10
2023-03-18T10:32:42.582Z,6.70
2023-03-18T10:35:15.608Z,2.73
2023-03-18T10:37:51.681Z,3.40
2023-03-18T10:40:19.999Z,4.80
2023-03-18T10:42:48.678Z,3.53
2023-03-18T10:45:28.116Z,3.00
2023-03-18T10:48:10.826Z,3.13
2023-03-18T10:51:09.381Z,4.43
2023-03-18T10:53:52.933Z,2.73
2023-03-18T10:56:19.596Z,2.17
2023-03-18T10:58:46.921Z,5.10
2023-03-18T11:01:19.013Z,1.90
2023-03-18T11:04:06.485Z,2.13
2023-03-18T11:06:55.661Z,2.70
2023-03-18T11:09:36.784Z,2.97
2023-03-18T11:12:14.436Z,2.70
2023-03-18T11:14:42.846Z,2.63
2023-03-18T11:17:31.745Z,2.30
2023-03-18T11:20:16.961Z,3.00
2023-03-18T11:22:51.975Z,2.80
2023-03-18T11:25:25.682Z,2.13
2023-03-18T11:27:58.987Z,2.27
2023-03-18T11:30:34.344Z,2.00
2023-03-18T11:33:10.452Z,2.20
2023-03-18T11:35:53.626Z,1.90
2023-03-18T11:38:30.360Z,3.77
2023-03-18T11:41:17.207Z,3.20
2023-03-18T11:44:05.310Z,2.63
2023-03-18T11:47:07.342Z,2.83
2023-03-18T11:49:34.460Z,2.93
2023-03-18T11:52:09.447Z,2.30
2023-03-18T11:54:45.756Z,2.50
2023-03-18T11:57:27.207Z,3.73
2023-03-18T11:59:54.226Z,2.73
2023-03-18T12:02:22.639Z,3.87
2023-03-18T12:05:14.080Z,2.13
2023-03-18T12:07:51.732Z,3.13
2023-03-18T12:10:20.264Z,2.67
2023-03-18T12:13:07.017Z,5.27
2023-03-18T12:15:54.696Z,2.57
2023-03-18T12:18:41.112Z,2.60
2023-03-18T12:21:33.323Z,2.57
2023-03-18T12:24:21.333Z,3.30
2023-03-18T12:27:19.057Z,2.80
2023-03-18T12:29:54.423Z,2.30
2023-03-18T12:32:43.404Z,1.83
2023-03-18T12:35:55.032Z,1.63
2023-03-18T12:38:54.132Z,2.50
2023-03-18T12:41:53.455Z,3.07
2023-03-18T12:44:44.587Z,2.33
2023-03-18T12:47:25.629Z,2.40
2023-03-18T12:49:52.688Z,2.97
2023-03-18T12:52:20.676Z,2.10
2023-03-18T12:55:31.274Z,1.90
2023-03-18T12:58:06.454Z,1.93
2023-03-18T13:00:54.227Z,2.23
2023-03-18T13:03:21.757Z,2.00
2023-03-18T13:06:05.073Z,2.20
2023-03-18T13:09:00.355Z,1.80
2023-03-18T13:11:48.533Z,2.60
2023-03-18T13:14:39.516Z,2.37
2023-03-18T13:17:13.698Z,3.17
2023-03-18T13:19:42.024Z,1.13
2023-03-18T13:22:45.948Z,2.20
2023-03-18T13:25:24.096Z,1.47
2023-03-18T13:28:03.204Z,2.83
2023-03-18T13:31:03.386Z,1.60
2023-03-18T13:33:44.620Z,1.40
2023-03-18T13:36:25.320Z,1.30
2023-03-18T13:39:23.035Z,2.00
2023-03-18T13:42:29.863Z,1.80
2023-03-18T13:45:08.864Z,1.33
2023-03-18T13:47:38.106Z,2.67
2023-03-18T13:50:37.890Z,1.40
2023-03-18T13:53:06.378Z,1.87
2023-03-18T13:55:39.762Z,1.20
2023-03-18T13:58:07.201Z,2.20
2023-03-18T14:00:38.182Z,1.57
2023-03-18T14:03:05.348Z,1.60
2023-03-18T14:05:33.198Z,1.40
2023-03-18T14:08:23.257Z,2.63
2023-03-18T14:10:50.386Z,1.10
2023-03-18T14:13:27.510Z,1.90
2023-03-18T14:15:57.902Z,1.03
2023-03-18T14:18:28.185Z,9.13
2023-03-18T14:21:01.486Z,1.33
2023-03-18T14:23:44.104Z,6.40
2023-03-18T14:26:20.619Z,2.57
2023-03-18T14:29:09.545Z,1.90
2023-03-18T14:31:39.283Z,1.80
2023-03-18T14:34:18.425Z,1.27
2023-03-18T14:36:54.230Z,2.70
2023-03-18T14:39:32.105Z,2.30
2023-03-18T14:42:02.507Z,3.80
2023-03-18T14:44:31.981Z,1.60
2023-03-18T14:47:03.560Z,1.67
2023-03-18T14:49:38.295Z,3.93
2023-03-18T14:52:13.336Z,2.80
2023-03-18T14:54:46.336Z,11.03
2023-03-18T14:57:13.439Z,2.07
2023-03-18T14:59:41.396Z,1.20
2023-03-18T15:02:30.364Z,1.53
2023-03-18T15:05:00.698Z,3.00
2023-03-18T15:07:39.318Z,1.23
2023-03-18T15:10:11.137Z,2.40
2023-03-18T15:12:37.814Z,1.30
2023-03-18T15:15:06.539Z,1.63
2023-03-18T15:17:33.756Z,3.00
2023-03-18T15:20:01.034Z,2.63
2023-03-18T15:22:31.574Z,1.57
2023-03-18T15:25:01.518Z,2.43
2023-03-18T15:27:31.127Z,0.83
2023-03-18T15:30:00.635Z,1.23
2023-03-18T15:32:32.632Z,1.77
2023-03-18T15:35:11.692Z,1.40
2023-03-18T15:37:41.580Z,1.77
2023-03-18T15:40:16.876Z,2.57
2023-03-18T15:42:45.261Z,3.03
2023-03-18T15:45:20.014Z,1.20
2023-03-18T15:47:47.396Z,1.17
2023-03-18T15:50:27.304Z,3.13
2023-03-18T15:53:20.304Z,2.60
2023-03-18T15:55:51.519Z,3.13
2023-03-18T15:58:33.906Z,2.13
2023-03-18T16:01:01.450Z,3.70
2023-03-18T16:03:31.606Z,3.03
2023-03-18T16:05:58.986Z,2.07
2023-03-18T16:08:26.171Z,1.10
2023-03-18T16:10:55.952Z,2.77
2023-03-18T16:13:29.727Z,1.17
2023-03-18T16:15:57.281Z,7.07
2023-03-18T16:18:24.327Z,1.70
2023-03-18T16:20:52.779Z,3.93
2023-03-18T16:23:21.307Z,5.40
2023-03-18T16:25:51.253Z,3.97
2023-03-18T16:28:24.274Z,2.20
2023-03-18T16:30:55.990Z,3.33
2023-03-18T16:33:23.719Z,0.80
2023-03-18T16:35:58.882Z,2.03
2023-03-18T16:38:26.876Z,3.00
2023-03-18T16:40:55.246Z,1.20
2023-03-18T16:43:28.962Z,1.37
2023-03-18T16:46:00.633Z,1.57
2023-03-18T16:48:28.364Z,1.20
2023-03-18T16:50:57.158Z,3.10
2023-03-18T16:53:27.551Z,6.77
2023-03-18T16:55:58.280Z,2.07
2023-03-18T16:58:36.327Z,5.50
2023-03-18T17:01:07.344Z,2.30
2023-03-18T17:03:35.566Z,1.50
2023-03-18T17:06:02.627Z,1.90
2023-03-18T17:08:29.670Z,2.83
2023-03-18T17:10:59.416Z,3.30
2023-03-18T17:13:31.444Z,1.90
2023-03-18T17:15:58.524Z,3.70
2023-03-18T17:18:26.192Z,2.00
2023-03-18T17:20:53.265Z,4.00
2023-03-18T17:23:28.468Z,2.13
2023-03-18T17:26:00.085Z,1.83
2023-03-18T17:28:40.196Z,2.87
2023-03-18T17:31:07.481Z,3.70
2023-03-18T17:33:35.553Z,2.13
2023-03-18T17:36:02.774Z,1.23
2023-03-18T17:38:31.117Z,2.47
2023-03-18T17:40:59.503Z,1.37
2023-03-18T17:43:34.918Z,1.37
2023-03-18T17:46:02.993Z,2.13
2023-03-18T17:48:32.128Z,1.57
2023-03-18T17:51:01.633Z,2.07
2023-03-18T17:53:41.340Z,1.67
2023-03-18T17:56:11.943Z,0.80
2023-03-18T17:58:44.602Z,2.07
2023-03-18T18:01:15.397Z,1.43
2023-03-18T18:03:42.405Z,1.20
2023-03-18T18:06:20.138Z,2.30
2023-03-18T18:08:48.579Z,2.70
2023-03-18T18:11:26.520Z,2.60
2023-03-18T18:14:01.460Z,3.40
2023-03-18T18:16:28.580Z,2.93
2023-03-18T18:18:55.690Z,1.10
2023-03-18T18:21:24.984Z,1.50
2023-03-18T18:23:52.352Z,1.77
2023-03-18T18:26:21.836Z,2.00
2023-03-18T18:28:52.087Z,2.20
2023-03-18T18:31:20.176Z,1.03
2023-03-18T18:33:49.983Z,1.03
2023-03-18T18:36:17.864Z,2.67
2023-03-18T18:38:44.980Z,4.17
2023-03-18T18:41:12.029Z,2.63
2023-03-18T18:43:39.112Z,0.80
2023-03-18T18:46:14.549Z,3.90
2023-03-18T18:48:41.799Z,3.60
2023-03-18T18:51:16.939Z,3.13
2023-03-18T18:53:43.970Z,1.47
2023-03-18T18:56:15.056Z,0.97
2023-03-18T18:58:42.304Z,4.57
2023-03-18T19:01:09.530Z,2.77
2023-03-18T19:03:36.623Z,4.80
2023-03-18T19:06:05.377Z,3.13
2023-03-18T19:08:36.185Z,2.30
2023-03-18T19:11:05.577Z,3.00
2023-03-18T19:13:34.629Z,3.23
2023-03-18T19:16:05.039Z,3.13
2023-03-18T19:18:40.449Z,1.80
2023-03-18T19:21:08.048Z,6.27
2023-03-18T19:23:35.585Z,4.10
2023-03-18T19:26:04.357Z,8.97
2023-03-18T19:28:59.469Z,7.90
2023-03-18T19:31:30.304Z,11.03
2023-03-18T19:33:59.501Z,8.53
2023-03-18T19:36:27.539Z,6.30
2023-03-18T19:38:55.575Z,1.90
2023-03-18T19:41:22.687Z,4.87
2023-03-18T19:43:50.685Z,5.07
2023-03-18T19:46:24.298Z,3.10
2023-03-18T19:48:51.212Z,2.33
2023-03-18T19:51:18.343Z,2.63
2023-03-18T19:53:46.920Z,2.40
2023-03-18T19:56:26.689Z,3.33
2023-03-18T19:58:56.926Z,3.63
2023-03-18T20:01:28.826Z,3.43
2023-03-18T20:03:58.189Z,2.03
2023-03-18T20:06:25.627Z,1.47
2023-03-18T20:08:52.753Z,1.23
2023-03-18T20:11:20.934Z,2.13
2023-03-18T20:13:48.407Z,1.27
2023-03-18T20:16:17.622Z,1.63
2023-03-18T20:18:44.847Z,3.43
2023-03-18T20:21:27.485Z,1.60
2023-03-18T20:23:58.764Z,2.13
2023-03-18T20:26:25.812Z,2.43
2023-03-18T20:28:55.732Z,1.20
2023-03-18T20:31:22.469Z,2.37
2023-03-18T20:33:49.502Z,4.30
2023-03-18T20:36:19.650Z,1.37
2023-03-18T20:38:49.106Z,2.20
2023-03-18T20:41:20.079Z,1.23
2023-03-18T20:43:50.062Z,1.97
2023-03-18T20:46:17.638Z,1.27
2023-03-18T20:48:44.975Z,1.63
2023-03-18T20:51:21.245Z,3.37
2023-03-18T20:53:49.366Z,2.17
2023-03-18T20:56:17.078Z,2.97
2023-03-18T20:58:44.078Z,1.70
2023-03-18T21:01:14.921Z,2.27
2023-03-18T21:03:42.034Z,1.90
2023-03-18T21:06:16.366Z,1.10
2023-03-18T21:08:43.498Z,1.30
2023-03-18T21:11:22.508Z,2.30
2023-03-18T21:13:49.591Z,1.73
2023-03-18T21:16:16.974Z,2.13
2023-03-18T21:18:45.709Z,2.63
2023-03-18T21:21:24.174Z,2.37
2023-03-18T21:23:52.260Z,1.33
2023-03-18T21:26:19.299Z,2.00
2023-03-18T21:28:45.946Z,6.40
2023-03-18T21:31:25.297Z,2.80
2023-03-18T21:33:53.366Z,1.83
2023-03-18T21:36:20.629Z,2.80
2023-03-18T21:38:47.768Z,3.87
2023-03-18T21:41:20.836Z,2.43
2023-03-18T21:43:48.658Z,3.50
2023-03-18T21:46:18.964Z,1.77
2023-03-18T21:48:46.285Z,1.93
2023-03-18T21:51:38.058Z,6.13
2023-03-18T21:54:05.862Z,1.50
2023-03-18T21:56:32.565Z,3.03
2023-03-18T21:58:59.637Z,1.87
2023-03-18T22:01:32.017Z,1.77
2023-03-18T22:03:59.395Z,1.70
2023-03-18T22:06:26.484Z,3.17
2023-03-18T22:08:53.519Z,1.97
2023-03-18T22:11:22.415Z,3.20
2023-03-18T22:13:49.608Z,1.30
2023-03-18T22:16:17.864Z,3.00
2023-03-18T22:18:46.240Z,1.50
2023-03-18T22:21:25.136Z,1.63
2023-03-18T22:23:52.356Z,3.80
2023-03-18T22:26:20.489Z,4.07
2023-03-18T22:28:47.686Z,2.40
2023-03-18T22:31:21.329Z,3.33
2023-03-18T22:33:48.548Z,2.27
2023-03-18T22:36:17.513Z,2.47
2023-03-18T22:38:44.838Z,3.23
2023-03-18T22:41:30.190Z,4.40
2023-03-18T22:43:59.761Z,2.57
2023-03-18T22:46:28.294Z,2.53
2023-03-18T22:48:55.625Z,2.53
2023-03-18T22:51:26.109Z,2.53
2023-03-18T22:53:54.090Z,2.10
2023-03-18T22:56:21.620Z,2.00
2023-03-18T22:58:48.815Z,2.47
2023-03-18T23:01:27.509Z,2.57
2023-03-18T23:03:54.554Z,2.37
2023-03-18T23:06:23.842Z,3.57
2023-03-18T23:08:50.966Z,1.90
2023-03-18T23:11:18.336Z,2.13
2023-03-18T23:13:49.663Z,6.37
2023-03-18T23:16:20.639Z,2.60
2023-03-18T23:18:47.732Z,3.30
2023-03-18T23:21:22.912Z,2.13
2023-03-18T23:23:50.266Z,1.63
2023-03-18T23:26:18.163Z,2.33
2023-03-18T23:28:45.834Z,1.77
2023-03-18T23:31:14.296Z,2.20
2023-03-18T23:33:41.573Z,2.57
2023-03-18T23:36:08.998Z,1.70
2023-03-18T23:38:37.511Z,1.40
2023-03-18T23:41:04.164Z,2.30
2023-03-18T23:43:31.173Z,1.40
2023-03-18T23:45:58.289Z,0.90
2023-03-18T23:48:25.570Z,2.33
2023-03-18T23:50:52.182Z,3.33
2023-03-18T23:53:19.206Z,2.83
2023-03-18T23:55:48.760Z,2.50
2023-03-18T23:58:16.081Z,2.20
